Pagrindinis puslapis
METAR-TAF:

METAR-TAF

Oro uostai :

Kuveitas, Kuveitas

platuma: 29-13N, ilguma: 047-59E, Aukštis: 55 m

Dabartinis oras

Ataskaita buvo paskelbta 51 minutes, ne 09:00 UTC
Vėjas 8 kt iš Šiaurės/Šiaurės Vakarų
Temperatūra 21°C
Drėgmė 43%
Slėgis 1022 hPa
Matomumas 10 km arba daugiau
nėra debesų žemiau 1500 m ir nėra kamuolinių lietaus debesų

METAR: OKBK 200900Z 34008KT CAVOK 21/08 Q1022 NOSIG

Laikas: 12:51 (09:51 UTC)

Prognozė

Ataskaita buvo paskelbta 5 valandos ir 6 minutes, ne 04:45 UTC
Prognozė galioja nuo 20 metu 06 UTC su 21 metu 12 UTC
Vėjas 12 kt iš Šiaurės Vakarų
Matomumas: 7000 m
Laikinai
nuo 20 metu 06 UTC su 20 metu 09 UTC
Vėjas 3 kt nuo kintamojo kryptimis

TAF: OKBK 200445Z 2006/2112 32012KT 7000 NSC TEMPO 2006/2009 VRB03KT

Orai ataskaitas ir orų prognozės (METAR, TAF).

turimą stotys yra geltonos ir raudonos taškus žemėlapyje.

Perkelti pele per norėdami pamatyti stoties vardą.

Tada spustelėkite, norėdami matyti oro stebėjimo ir prognozės.

Norėdami pakeisti žemėlapį: spustelėkite ant žalios mygtukų su juodo kryžiaus žemyn,; žalią mygtuką su brūkšneliu, jei norite nutolinti; arba žalių rodyklių gretimoms žemėlapius.


METAR-TAF: